Terminal Aerodrome Forecast
Issued by NWS

Home | Current Version | Previous Version | Text Only | Print | Product List | Glossary On
Versions: 1 2 3 4 5 6 7 8 9 10 11 12 13 14 15 16 17 18 19
080
FTUS42 KKEY 191726
TAFMTH
TAF
KMTH 191726Z 1918/2018 05008KT P6SM SCT025
     FM200600 07005KT P6SM VCSH SCT025 BKN200
     FM201200 10008KT P6SM VCTS SCT025CB BKN060=

USA.gov is the U.S. government's official web portal to all federal, state and local government web resources and services.